Time;durP1;ratioP1;P1;durP2;ratioP2;P2;SDS_P1;SDS_P2;PMS_P1;PMS_P2;Temp;Humidity;BMP_temperature;BMP_pressure;BME280_temperature;BME280_humidity;BME280_pressure;Samples;Min_cycle;Max_cycle;Signal;HPM_P1;HPM_P2
2023/07/20 00:02:27;;;;;;;2.33;1.50;;;29.00;33.60;;;;;;6153743;28;20035;-83
2023/07/20 00:05:28;;;;;;;3.00;1.20;;;29.00;33.60;;;;;;6153513;28;20035;-81
2023/07/20 00:08:29;;;;;;;2.58;1.30;;;29.00;33.60;;;;;;6153434;28;20034;-81
2023/07/20 00:11:30;;;;;;;1.73;1.13;;;28.70;33.50;;;;;;6167905;28;20038;-81
2023/07/20 00:14:32;;;;;;;2.38;1.23;;;29.00;33.60;;;;;;6172179;28;20699;-81
2023/07/20 00:17:32;;;;;;;4.32;1.45;;;29.00;33.70;;;;;;6173336;28;20031;-81
2023/07/20 00:20:33;;;;;;;2.70;1.35;;;28.90;33.70;;;;;;6171344;28;20066;-81
2023/07/20 00:23:34;;;;;;;1.77;1.25;;;28.90;33.80;;;;;;6168166;28;20137;-81
2023/07/20 00:26:35;;;;;;;4.60;1.58;;;28.90;33.90;;;;;;6169947;28;20058;-81
2023/07/20 00:29:36;;;;;;;8.57;1.60;;;28.80;34.00;;;;;;6175518;28;20069;-80
2023/07/20 00:32:37;;;;;;;3.50;1.70;;;28.80;34.00;;;;;;6175515;28;20030;-80
2023/07/20 00:35:41;;;;;;;2.88;1.67;;;28.80;34.00;;;;;;6175344;28;20506;-81
2023/07/20 00:38:42;;;;;;;3.80;1.58;;;28.80;34.10;;;;;;6177096;28;20134;-82
2023/07/20 00:41:44;;;;;;;2.72;1.25;;;28.80;33.80;;;;;;6174916;28;20047;-81
2023/07/20 00:44:45;;;;;;;2.38;1.48;;;28.80;34.30;;;;;;6175386;28;20037;-81
2023/07/20 00:47:46;;;;;;;3.15;1.60;;;28.70;34.40;;;;;;6176215;28;20042;-81
2023/07/20 00:50:48;;;;;;;4.82;1.60;;;28.60;34.50;;;;;;6174902;28;20037;-81
2023/07/20 00:53:50;;;;;;;4.47;1.65;;;28.60;34.50;;;;;;6166189;28;20034;-80
2023/07/20 00:56:52;;;;;;;5.90;1.55;;;28.60;34.60;;;;;;6135130;29;20028;-81
2023/07/20 00:59:53;;;;;;;2.42;1.50;;;28.60;34.80;;;;;;6150024;28;20213;-80
2023/07/20 01:02:54;;;;;;;4.65;1.55;;;28.50;34.60;;;;;;6148392;29;20070;-80
2023/07/20 01:06:23;;;;;;;4.78;1.83;;;28.50;34.60;;;;;;6149730;29;20039;-80
2023/07/20 01:10:25;;;;;;;3.17;1.52;;;28.50;34.80;;;;;;6148737;29;20045;-81
2023/07/20 01:13:27;;;;;;;3.45;1.90;;;28.40;34.80;;;;;;6079049;29;20112;-82
2023/07/20 01:16:28;;;;;;;4.60;2.08;;;28.40;34.90;;;;;;6063383;29;20111;-80
2023/07/20 01:19:29;;;;;;;4.43;1.40;;;28.40;35.00;;;;;;6063588;29;20453;-80
2023/07/20 01:23:05;;;;;;;4.95;1.50;;;28.40;35.00;;;;;;6108741;29;20095;-81
2023/07/20 01:26:47;;;;;;;4.30;1.77;;;28.30;35.10;;;;;;6036490;29;20139;-80
2023/07/20 01:30:12;;;;;;;3.05;1.73;;;28.30;35.40;;;;;;6048479;29;20049;-80
2023/07/20 01:33:16;;;;;;;3.25;1.40;;;28.20;35.40;;;;;;6035012;29;20033;-81
2023/07/20 01:36:18;;;;;;;4.22;1.80;;;28.20;35.40;;;;;;6044776;29;20049;-80
2023/07/20 01:39:20;;;;;;;4.13;1.63;;;28.20;35.60;;;;;;6060854;29;20041;-81
2023/07/20 01:42:24;;;;;;;4.45;1.80;;;28.20;35.70;;;;;;6043405;29;20073;-81
2023/07/20 01:45:26;;;;;;;6.80;1.63;;;28.10;35.80;;;;;;6088918;29;20127;-80
2023/07/20 01:48:27;;;;;;;2.65;1.58;;;28.10;35.90;;;;;;6112998;29;20143;-79
2023/07/20 01:51:29;;;;;;;2.78;1.65;;;28.10;36.00;;;;;;6126894;29;20036;-80
2023/07/20 01:54:30;;;;;;;3.33;1.52;;;28.00;36.00;;;;;;6126223;29;20049;-80
2023/07/20 01:57:32;;;;;;;2.28;1.50;;;28.00;36.00;;;;;;6111921;29;20047;-80
2023/07/20 02:00:33;;;;;;;4.57;1.63;;;28.00;36.10;;;;;;6138540;28;20098;-81
2023/07/20 02:03:33;;;;;;;2.83;1.75;;;27.90;36.20;;;;;;6176851;28;20023;-82
2023/07/20 02:06:38;;;;;;;4.57;1.75;;;27.80;36.20;;;;;;6176867;28;20102;-81
2023/07/20 02:09:39;;;;;;;6.85;1.95;;;27.80;36.20;;;;;;6176161;28;20038;-80
2023/07/20 02:12:42;;;;;;;6.00;2.10;;;27.80;36.30;;;;;;6161257;28;20062;-79
2023/07/20 02:15:42;;;;;;;7.32;1.80;;;27.80;36.40;;;;;;6177623;28;20373;-79
2023/07/20 02:18:43;;;;;;;2.70;1.17;;;27.80;36.40;;;;;;6175686;28;20371;-79
2023/07/20 02:21:46;;;;;;;4.18;1.80;;;27.70;36.40;;;;;;6159785;28;20035;-82
2023/07/20 02:24:47;;;;;;;2.63;1.60;;;27.70;36.50;;;;;;6179363;28;20049;-80
2023/07/20 02:27:48;;;;;;;6.60;1.95;;;27.70;36.70;;;;;;6161587;28;20035;-80
2023/07/20 02:30:49;;;;;;;6.68;1.85;;;27.60;36.70;;;;;;6162266;28;20038;-79
2023/07/20 02:33:49;;;;;;;5.97;1.75;;;27.60;36.90;;;;;;6178886;28;20066;-79
2023/07/20 02:36:50;;;;;;;6.78;1.67;;;27.60;36.90;;;;;;6161578;28;20122;-80
2023/07/20 02:39:51;;;;;;;5.47;1.67;;;27.50;36.90;;;;;;6178062;28;20121;-80
2023/07/20 02:42:52;;;;;;;3.75;1.70;;;27.50;37.00;;;;;;6162079;28;20042;-82
2023/07/20 02:45:53;;;;;;;6.82;1.80;;;27.40;37.10;;;;;;6174690;28;20034;-80
2023/07/20 02:48:54;;;;;;;8.93;1.63;;;27.40;37.20;;;;;;6167890;28;20039;-79
2023/07/20 02:51:54;;;;;;;2.92;1.33;;;27.30;37.90;;;;;;6151540;29;20062;-82
2023/07/20 02:54:55;;;;;;;2.08;1.52;;;27.30;37.50;;;;;;6152044;29;20090;-81
2023/07/20 02:57:57;;;;;;;4.63;1.63;;;27.20;37.50;;;;;;6134893;29;20038;-80
2023/07/20 03:00:59;;;;;;;3.78;1.70;;;27.20;37.60;;;;;;6150928;29;20426;-80
2023/07/20 03:04:00;;;;;;;4.47;1.73;;;27.10;37.80;;;;;;6135064;29;20055;-80
2023/07/20 03:07:01;;;;;;;2.88;1.58;;;27.10;37.90;;;;;;6152276;29;20433;-80
2023/07/20 03:10:03;;;;;;;2.75;1.58;;;27.00;37.90;;;;;;6152998;29;20034;-80
2023/07/20 03:13:04;;;;;;;2.70;1.30;;;26.90;38.00;;;;;;6150508;29;20027;-82
2023/07/20 03:16:11;;;;;;;3.55;1.48;;;26.80;38.10;;;;;;6151884;29;20034;-80
2023/07/20 03:19:12;;;;;;;2.25;1.20;;;26.80;38.20;;;;;;6150764;29;20487;-81
2023/07/20 03:22:13;;;;;;;7.80;1.40;;;26.80;38.30;;;;;;6158183;28;20081;-81
2023/07/20 03:25:14;;;;;;;4.13;1.70;;;26.70;38.50;;;;;;6175324;28;20031;-81
2023/07/20 03:28:15;;;;;;;3.35;1.35;;;26.70;38.80;;;;;;6159583;28;20038;-80
2023/07/20 03:31:16;;;;;;;2.88;1.42;;;26.60;39.10;;;;;;6161164;28;20042;-81
2023/07/20 03:34:17;;;;;;;5.15;1.52;;;26.60;39.40;;;;;;6154631;28;20027;-81
2023/07/20 03:37:18;;;;;;;8.15;1.30;;;26.50;39.60;;;;;;6138366;29;20057;-82
2023/07/20 03:40:18;;;;;;;3.70;2.00;;;26.40;39.60;;;;;;6138117;29;20071;-80
2023/07/20 03:43:20;;;;;;;2.13;1.63;;;26.40;40.00;;;;;;6153943;28;20506;-80
2023/07/20 03:46:21;;;;;;;5.03;1.70;;;26.30;40.30;;;;;;6154125;29;20035;-80
2023/07/20 03:49:22;;;;;;;3.42;1.50;;;26.30;40.50;;;;;;6172858;28;20050;-81
2023/07/20 03:52:23;;;;;;;2.55;1.17;;;26.30;40.60;;;;;;6177686;28;20053;-81
2023/07/20 03:55:24;;;;;;;3.88;1.40;;;26.30;40.60;;;;;;6161570;28;20049;-82
2023/07/20 03:58:25;;;;;;;3.25;1.70;;;26.30;40.50;;;;;;6159890;28;20062;-81
2023/07/20 04:01:25;;;;;;;1.90;1.52;;;26.30;40.70;;;;;;6176250;28;20039;-81
2023/07/20 04:04:27;;;;;;;7.32;1.70;;;26.30;40.70;;;;;;6176146;28;20043;-80
2023/07/20 04:07:28;;;;;;;5.00;1.63;;;26.30;40.90;;;;;;6174318;28;20034;-80
2023/07/20 04:10:29;;;;;;;3.50;1.45;;;26.30;40.90;;;;;;6157306;28;20022;-83
2023/07/20 04:13:34;;;;;;;4.28;1.58;;;26.30;40.90;;;;;;6173364;28;20073;-79
2023/07/20 04:16:38;;;;;;;2.47;1.40;;;26.30;40.90;;;;;;6160593;28;20058;-81
2023/07/20 04:19:38;;;;;;;2.85;1.27;;;26.30;40.90;;;;;;6175898;28;20034;-80
2023/07/20 04:22:39;;;;;;;4.15;1.38;;;26.20;40.80;;;;;;6175336;28;20047;-80
2023/07/20 04:25:43;;;;;;;3.08;1.52;;;26.10;41.00;;;;;;6176423;28;20202;-80
2023/07/20 04:28:47;;;;;;;2.45;1.30;;;26.00;41.20;;;;;;6173326;28;20091;-80
2023/07/20 04:31:56;;;;;;;6.85;1.60;;;25.90;41.40;;;;;;6171626;28;20117;-81
2023/07/20 04:34:57;;;;;;;3.53;1.50;;;25.80;41.60;;;;;;6169781;28;20080;-80
2023/07/20 04:37:58;;;;;;;5.28;1.50;;;25.70;41.80;;;;;;6163275;28;20472;-81
2023/07/20 04:41:00;;;;;;;4.97;1.52;;;25.70;42.10;;;;;;6150923;29;20039;-80
2023/07/20 04:44:01;;;;;;;8.60;2.53;;;25.60;42.30;;;;;;6169952;28;20035;-77
2023/07/20 04:47:04;;;;;;;3.60;1.67;;;25.60;42.50;;;;;;6167395;28;20101;-78
2023/07/20 04:50:09;;;;;;;7.55;1.65;;;25.50;42.50;;;;;;6153733;28;20034;-77
2023/07/20 04:53:14;;;;;;;5.88;1.52;;;25.60;42.70;;;;;;6153451;28;20437;-81
2023/07/20 04:56:18;;;;;;;6.00;1.65;;;25.60;42.80;;;;;;6151510;28;20037;-81
2023/07/20 04:59:22;;;;;;;5.28;1.63;;;25.70;42.80;;;;;;6170446;28;20126;-78
2023/07/20 05:02:26;;;;;;;6.28;1.70;;;25.70;42.70;;;;;;6169429;28;20019;-77
2023/07/20 05:05:29;;;;;;;6.53;1.50;;;25.70;42.70;;;;;;6169909;28;20042;-77
2023/07/20 05:08:33;;;;;;;3.20;1.67;;;25.70;42.70;;;;;;6150566;28;20030;-80
2023/07/20 05:11:34;;;;;;;3.47;1.55;;;25.70;42.70;;;;;;6156907;28;20054;-77
2023/07/20 05:14:35;;;;;;;6.20;1.60;;;25.80;42.70;;;;;;6174008;28;20318;-77
2023/07/20 05:17:39;;;;;;;4.18;1.63;;;25.80;42.70;;;;;;6172334;28;20382;-77
2023/07/20 05:20:43;;;;;;;2.10;1.30;;;25.80;42.60;;;;;;6172058;28;20034;-77
2023/07/20 05:23:46;;;;;;;6.32;1.52;;;25.80;42.60;;;;;;6172607;28;20031;-77
2023/07/20 05:26:51;;;;;;;6.30;1.63;;;25.80;42.60;;;;;;6164230;28;20039;-77
2023/07/20 05:29:55;;;;;;;2.40;1.58;;;25.80;42.60;;;;;;6147164;29;20046;-79
2023/07/20 05:32:58;;;;;;;7.63;1.85;;;25.90;42.60;;;;;;6150476;29;20046;-79
2023/07/20 05:36:01;;;;;;;2.90;1.45;;;25.80;42.50;;;;;;6172661;28;20037;-77
2023/07/20 05:39:02;;;;;;;3.03;1.52;;;25.90;42.40;;;;;;6171653;28;20030;-77
2023/07/20 05:42:11;;;;;;;6.20;1.52;;;25.90;42.40;;;;;;6156727;28;20039;-79
2023/07/20 05:45:12;;;;;;;4.50;1.48;;;25.90;42.40;;;;;;6172005;28;20037;-78
2023/07/20 05:48:13;;;;;;;5.10;1.75;;;26.00;42.40;;;;;;6181712;28;20352;-78
2023/07/20 05:51:14;;;;;;;10.77;2.10;;;26.00;42.30;;;;;;6198047;28;20462;-77
2023/07/20 05:54:15;;;;;;;2.22;1.40;;;26.00;42.20;;;;;;6194748;28;20034;-78
2023/07/20 05:57:15;;;;;;;3.05;1.60;;;26.10;42.40;;;;;;6180519;28;20034;-77
2023/07/20 06:00:19;;;;;;;8.90;1.60;;;26.10;42.30;;;;;;6195871;28;20080;-79
2023/07/20 06:03:21;;;;;;;4.82;1.42;;;26.10;42.30;;;;;;6197048;28;20034;-77
2023/07/20 06:06:22;;;;;;;11.60;1.60;;;26.10;42.30;;;;;;6194487;28;20121;-79
2023/07/20 06:09:23;;;;;;;2.78;1.35;;;26.10;42.30;;;;;;6177792;28;20150;-78
2023/07/20 06:12:24;;;;;;;2.65;1.35;;;26.10;42.40;;;;;;6195581;28;20113;-80
2023/07/20 06:15:31;;;;;;;2.22;1.50;;;26.10;42.40;;;;;;6197205;28;20086;-80
2023/07/20 06:18:32;;;;;;;2.92;1.20;;;26.00;42.40;;;;;;6199310;28;20125;-82
2023/07/20 06:21:32;;;;;;;9.18;1.73;;;26.00;42.50;;;;;;6182607;28;20100;-80
2023/07/20 06:24:33;;;;;;;6.15;1.92;;;25.70;42.60;;;;;;6167807;28;20062;-79
2023/07/20 06:27:34;;;;;;;9.93;1.77;;;25.80;42.90;;;;;;6151661;29;20106;-80
2023/07/20 06:30:35;;;;;;;3.92;1.30;;;25.80;43.00;;;;;;6173500;28;20057;-80
2023/07/20 06:33:36;;;;;;;7.35;2.22;;;25.80;42.90;;;;;;6184930;28;20092;-81
2023/07/20 06:36:38;;;;;;;7.90;1.75;;;25.70;43.00;;;;;;6185884;28;20030;-80
2023/07/20 06:39:39;;;;;;;2.45;1.25;;;25.70;43.00;;;;;;6198601;28;20251;-81
2023/07/20 06:42:39;;;;;;;2.65;1.40;;;25.80;43.00;;;;;;6198282;28;20030;-79
2023/07/20 06:45:41;;;;;;;3.53;1.50;;;25.80;42.90;;;;;;6195772;28;20380;-79
2023/07/20 06:48:41;;;;;;;6.07;1.52;;;25.90;42.80;;;;;;6197166;28;20036;-79
2023/07/20 06:51:43;;;;;;;18.10;1.83;;;25.90;42.60;;;;;;6195995;28;20475;-82
2023/07/20 06:54:44;;;;;;;2.72;1.67;;;26.10;42.50;;;;;;6195796;28;20069;-81
2023/07/20 06:57:45;;;;;;;8.82;1.60;;;26.10;42.30;;;;;;6177408;28;20455;-80
2023/07/20 07:00:49;;;;;;;3.80;1.40;;;26.10;42.30;;;;;;6193410;28;20050;-81
2023/07/20 07:03:53;;;;;;;3.13;1.80;;;26.20;42.20;;;;;;6197513;28;20045;-81
2023/07/20 07:06:54;;;;;;;6.18;1.48;;;26.30;42.00;;;;;;6177943;28;20053;-79
2023/07/20 07:09:55;;;;;;;5.25;1.75;;;26.50;41.80;;;;;;6196862;28;20474;-80
2023/07/20 07:12:55;;;;;;;7.75;1.58;;;26.50;41.60;;;;;;6180541;28;20033;-79
2023/07/20 07:15:56;;;;;;;2.25;1.33;;;26.50;41.50;;;;;;6199090;28;20038;-80
2023/07/20 07:18:59;;;;;;;4.60;1.63;;;26.60;41.40;;;;;;6196215;28;20038;-79
2023/07/20 07:22:00;;;;;;;2.53;1.45;;;26.70;41.40;;;;;;6197362;28;20050;-80
2023/07/20 07:25:03;;;;;;;4.10;1.85;;;26.70;41.30;;;;;;6196065;28;20382;-81
2023/07/20 07:28:04;;;;;;;5.47;1.63;;;26.70;41.30;;;;;;6179350;28;20042;-79
2023/07/20 07:31:06;;;;;;;3.30;1.63;;;26.80;41.10;;;;;;6194320;28;20157;-81
2023/07/20 07:34:07;;;;;;;3.67;1.45;;;26.90;41.00;;;;;;6179295;28;20148;-80
2023/07/20 07:37:08;;;;;;;2.75;1.77;;;27.10;40.90;;;;;;6194626;28;20026;-80
2023/07/20 07:45:10;;;;;;;2.65;1.40;;;27.30;40.50;;;;;;6170034;28;20046;-79
2023/07/20 07:48:22;;;;;;;1.70;1.15;;;27.50;40.30;;;;;;6009658;29;20053;-79
2023/07/20 08:13:46;;;;;;;;;;;;;;;;;;;;;
2023/07/20 08:22:18;;;;;;;2.92;1.17;;;28.80;38.30;;;;;;6125663;28;20044;-80
2023/07/20 08:29:47;;;;;;;4.00;1.10;;;29.10;37.50;;;;;;6105255;29;20043;-80
2023/07/20 08:41:27;;;;;;;4.65;1.40;;;29.40;37.20;;;;;;6119908;29;20135;-82
2023/07/20 08:45:13;;;;;;;9.68;1.40;;;29.40;36.80;;;;;;6119119;29;20079;-81
2023/07/20 08:48:27;;;;;;;4.75;1.27;;;29.60;36.60;;;;;;6129768;28;20121;-80
2023/07/20 09:00:59;;;;;;;5.22;1.80;;;30.20;35.90;;;;;;6001914;29;20050;-82
2023/07/20 09:04:49;;;;;;;;;;;;;;;;;;;;;
2023/07/20 09:08:14;;;;;;;3.30;1.50;;;30.20;35.50;;;;;;5956412;29;20070;-79
2023/07/20 09:12:14;;;;;;;2.10;1.02;;;29.90;35.10;;;;;;5963636;29;20077;-78
2023/07/20 09:15:19;;;;;;;4.38;1.42;;;30.40;35.20;;;;;;5980742;29;20621;-79
2023/07/20 09:18:37;;;;;;;1.85;0.82;;;30.50;35.00;;;;;;5975917;29;20137;-79
2023/07/20 09:22:08;;;;;;;2.17;1.20;;;30.50;35.10;;;;;;5995517;29;20042;-81
2023/07/20 09:25:58;;;;;;;2.53;1.48;;;30.50;35.10;;;;;;5969356;29;20160;-81
2023/07/20 09:29:15;;;;;;;4.03;1.48;;;30.50;35.00;;;;;;5980708;29;20180;-80
2023/07/20 09:32:41;;;;;;;3.90;1.50;;;30.50;35.00;;;;;;5996751;29;20050;-81
2023/07/20 09:36:15;;;;;;;2.72;1.30;;;30.50;34.90;;;;;;6004740;29;20467;-83
2023/07/20 09:39:23;;;;;;;5.70;1.25;;;30.60;34.80;;;;;;6010220;29;20591;-81
2023/07/20 09:43:03;;;;;;;;;;;;;;;;;;;;;
2023/07/20 09:51:36;;;;;;;2.45;1.55;;;30.80;34.50;;;;;;6028895;29;20147;-83
2023/07/20 09:55:37;;;;;;;;;;;;;;;;;;;;;
2023/07/20 09:58:54;;;;;;;4.78;1.52;;;30.90;34.40;;;;;;6043072;29;20049;-82
2023/07/20 10:06:05;;;;;;;1.85;1.00;;;31.20;34.40;;;;;;6050539;29;20041;-83
2023/07/20 10:09:07;;;;;;;4.03;1.30;;;31.20;34.20;;;;;;6033780;29;20128;-81
2023/07/20 10:12:17;;;;;;;4.72;1.25;;;31.20;34.10;;;;;;6042820;29;20049;-81
2023/07/20 10:15:37;;;;;;;1.63;0.95;;;31.30;34.10;;;;;;6011730;29;20176;-81
2023/07/20 10:19:13;;;;;;;1.83;1.10;;;31.30;34.00;;;;;;6026639;29;20561;-83
2023/07/20 10:22:30;;;;;;;2.15;1.55;;;31.30;33.90;;;;;;6051349;29;20560;-80
2023/07/20 10:25:32;;;;;;;3.70;1.20;;;30.90;33.60;;;;;;6082362;29;20039;-83
2023/07/20 10:28:38;;;;;;;6.60;1.27;;;31.40;33.70;;;;;;6081885;29;20584;-83
2023/07/20 10:31:43;;;;;;;4.93;1.58;;;31.40;33.80;;;;;;6064327;29;20845;-80
2023/07/20 10:34:51;;;;;;;6.03;1.15;;;31.50;33.70;;;;;;6096747;29;20394;-82
2023/07/20 10:37:55;;;;;;;2.17;0.85;;;31.60;33.50;;;;;;6121766;29;20051;-81
2023/07/20 10:40:59;;;;;;;3.88;1.52;;;31.60;33.20;;;;;;6143273;28;20049;-81
2023/07/20 10:44:50;;;;;;;1.92;1.17;;;31.60;33.30;;;;;;6171274;28;20037;-80
2023/07/20 10:47:58;;;;;;;1.98;1.08;;;31.60;33.60;;;;;;6104321;29;20201;-80
2023/07/20 10:51:21;;;;;;;5.30;1.35;;;31.40;33.30;;;;;;6104440;29;20055;-78
2023/07/20 10:54:48;;;;;;;2.50;1.27;;;31.70;33.30;;;;;;6139361;29;20035;-79
2023/07/20 10:58:11;;;;;;;6.03;1.20;;;31.80;33.20;;;;;;6096376;29;21376;-78
2023/07/20 11:01:19;;;;;;;7.70;1.58;;;31.90;33.10;;;;;;6091799;29;20203;-77
2023/07/20 11:04:38;;;;;;;3.45;1.00;;;32.00;33.00;;;;;;6077026;29;20154;-77
2023/07/20 11:07:39;;;;;;;5.20;2.60;;;32.10;33.00;;;;;;6083445;29;20172;-80
2023/07/20 11:10:40;;;;;;;2.65;1.42;;;32.50;32.40;;;;;;6073858;29;20044;-79
2023/07/20 11:13:54;;;;;;;6.43;1.00;;;33.10;31.60;;;;;;6081653;29;20099;-78
2023/07/20 11:17:10;;;;;;;5.97;1.40;;;33.90;30.70;;;;;;6078776;29;20071;-80
2023/07/20 11:20:13;;;;;;;2.70;1.05;;;34.60;29.90;;;;;;6058386;29;20157;-78
2023/07/20 11:23:14;;;;;;;3.78;1.20;;;35.30;29.20;;;;;;6092106;29;20891;-77
2023/07/20 11:26:15;;;;;;;6.90;1.10;;;35.80;28.70;;;;;;6105778;29;20044;-79
2023/07/20 11:29:17;;;;;;;1.33;1.00;;;36.30;28.20;;;;;;6118162;28;20103;-79
2023/07/20 11:32:24;;;;;;;10.32;1.20;;;36.60;27.90;;;;;;6096194;29;20118;-79
2023/07/20 11:35:25;;;;;;;2.80;1.40;;;36.90;27.60;;;;;;6134612;29;20071;-79
2023/07/20 11:38:28;;;;;;;1.63;1.13;;;37.10;27.30;;;;;;6131599;29;20102;-80
2023/07/20 11:41:29;;;;;;;3.88;1.65;;;37.20;27.00;;;;;;6136299;28;20046;-79
2023/07/20 11:44:30;;;;;;;3.55;1.60;;;37.30;27.10;;;;;;6174154;28;20070;-80
2023/07/20 11:47:32;;;;;;;3.40;1.38;;;37.60;26.90;;;;;;6172273;28;20030;-79
2023/07/20 11:50:39;;;;;;;1.98;1.17;;;37.90;26.60;;;;;;6172091;28;20129;-79
2023/07/20 11:53:40;;;;;;;3.70;1.33;;;38.00;26.20;;;;;;6178772;28;20081;-81
2023/07/20 11:56:42;;;;;;;3.08;1.23;;;38.10;26.20;;;;;;6159419;28;20031;-82
2023/07/20 11:59:57;;;;;;;8.40;1.55;;;38.30;26.00;;;;;;6175748;28;20035;-81
2023/07/20 12:02:58;;;;;;;2.17;1.20;;;38.60;25.80;;;;;;6173650;28;20069;-81
2023/07/20 12:06:07;;;;;;;4.95;1.58;;;38.90;25.50;;;;;;6155450;28;20039;-79
2023/07/20 12:09:16;;;;;;;5.40;1.58;;;39.00;25.30;;;;;;6175064;28;20483;-83
2023/07/20 12:12:19;;;;;;;2.03;1.30;;;39.10;25.00;;;;;;6171622;28;20076;-79
2023/07/20 12:15:20;;;;;;;10.88;1.20;;;39.10;24.90;;;;;;6179188;28;20047;-81
2023/07/20 12:18:24;;;;;;;2.65;1.23;;;39.20;24.80;;;;;;6170038;28;20045;-81
2023/07/20 12:21:25;;;;;;;2.90;1.00;;;39.20;24.80;;;;;;6201199;28;20567;-78
2023/07/20 12:24:26;;;;;;;1.38;1.00;;;39.60;24.70;;;;;;6169728;28;20061;-80
2023/07/20 12:27:28;;;;;;;3.80;1.20;;;39.70;24.30;;;;;;6188168;28;20133;-80
2023/07/20 12:30:29;;;;;;;6.63;1.35;;;39.80;24.20;;;;;;6198981;28;20034;-80
2023/07/20 12:33:29;;;;;;;2.75;1.10;;;40.00;24.00;;;;;;6179936;28;20117;-82
2023/07/20 12:36:31;;;;;;;5.75;1.10;;;40.20;23.80;;;;;;6180626;28;20067;-79
2023/07/20 12:39:32;;;;;;;2.17;1.50;;;40.20;23.50;;;;;;6153958;28;20104;-80
2023/07/20 12:42:33;;;;;;;1.20;1.00;;;40.30;23.60;;;;;;6152667;29;20431;-81
2023/07/20 12:45:34;;;;;;;6.53;1.17;;;40.30;23.50;;;;;;6147384;29;20054;-82
2023/07/20 12:48:40;;;;;;;1.25;0.95;;;40.40;23.30;;;;;;6163450;28;20038;-80
2023/07/20 12:51:42;;;;;;;2.05;1.10;;;40.40;23.10;;;;;;6155682;28;20039;-80
2023/07/20 12:54:42;;;;;;;1.42;1.13;;;40.50;23.00;;;;;;6162783;28;20454;-80
2023/07/20 12:57:46;;;;;;;2.67;1.10;;;40.70;23.00;;;;;;6181076;28;20041;-80
2023/07/20 13:00:47;;;;;;;6.57;1.08;;;41.00;22.70;;;;;;6176829;28;20202;-81
2023/07/20 13:03:48;;;;;;;4.78;1.20;;;41.20;22.50;;;;;;6171023;28;20038;-81
2023/07/20 13:06:49;;;;;;;2.67;1.10;;;41.40;22.30;;;;;;6201078;28;20035;-81
2023/07/20 13:09:50;;;;;;;2.88;1.20;;;41.60;21.90;;;;;;6175414;28;20363;-81
2023/07/20 13:12:51;;;;;;;3.40;1.27;;;41.80;21.60;;;;;;6173543;28;20031;-81
2023/07/20 13:15:58;;;;;;;2.90;1.20;;;41.90;21.40;;;;;;6170622;28;20133;-82
2023/07/20 13:19:11;;;;;;;3.03;0.93;;;42.20;21.40;;;;;;6182929;28;20035;-77
2023/07/20 13:22:31;;;;;;;1.55;1.15;;;42.50;21.00;;;;;;6202896;28;20038;-80
2023/07/20 13:26:03;;;;;;;3.22;1.58;;;42.60;20.60;;;;;;6153237;28;20062;-81
2023/07/20 13:29:25;;;;;;;1.75;1.00;;;43.10;20.50;;;;;;6192356;23;20073;-80
2023/07/20 13:32:40;;;;;;;4.15;1.20;;;43.30;20.20;;;;;;6198753;28;20395;-81
2023/07/20 13:35:58;;;;;;;2.38;1.20;;;43.60;20.10;;;;;;6199655;28;20049;-79
2023/07/20 13:39:11;;;;;;;1.63;1.00;;;44.10;19.70;;;;;;6205024;28;20030;-81
2023/07/20 13:42:47;;;;;;;1.65;1.00;;;44.80;19.40;;;;;;6226915;28;20034;-82
2023/07/20 13:45:56;;;;;;;2.53;1.40;;;45.30;18.80;;;;;;6206673;28;20048;-80
2023/07/20 13:49:36;;;;;;;3.17;1.25;;;45.40;18.70;;;;;;6220341;28;20124;-82
2023/07/20 13:52:38;;;;;;;4.07;1.15;;;45.90;18.50;;;;;;6210042;28;20042;-81
2023/07/20 13:56:21;;;;;;;4.05;1.23;;;46.40;18.00;;;;;;6177443;28;20023;-80
2023/07/20 14:00:21;;;;;;;5.38;1.25;;;46.40;18.00;;;;;;6175553;28;20394;-81
2023/07/20 14:03:50;;;;;;;1.52;1.02;;;46.70;17.70;;;;;;6183929;28;20038;-79
2023/07/20 14:06:55;;;;;;;2.72;1.30;;;46.80;17.50;;;;;;6187551;28;20049;-80
2023/07/20 14:10:03;;;;;;;5.40;1.00;;;47.00;17.40;;;;;;6188034;28;20163;-83
2023/07/20 14:17:23;;;;;;;6.57;1.23;;;46.30;17.60;;;;;;6173281;28;20039;-82
2023/07/20 14:21:08;;;;;;;3.38;1.17;;;46.50;17.60;;;;;;6165520;28;20066;-81
2023/07/20 14:27:54;;;;;;;3.33;1.20;;;46.90;17.20;;;;;;6152761;28;20129;-80
2023/07/20 14:31:19;;;;;;;2.13;1.17;;;47.20;17.10;;;;;;6156476;28;20842;-80
2023/07/20 14:35:00;;;;;;;2.47;1.20;;;47.40;16.80;;;;;;6161472;28;20095;-78
2023/07/20 14:38:42;;;;;;;1.73;1.42;;;47.40;16.60;;;;;;6157985;28;20073;-81
2023/07/20 14:42:27;;;;;;;2.22;1.33;;;47.30;16.90;;;;;;6139202;28;20214;-80
2023/07/20 14:46:05;;;;;;;1.65;1.00;;;46.80;16.90;;;;;;6088455;29;20059;-80
2023/07/20 14:53:17;;;;;;;1.55;1.10;;;46.40;17.10;;;;;;5995634;29;20675;-79
2023/07/20 14:57:07;;;;;;;6.68;1.30;;;46.00;17.10;;;;;;6022837;29;20548;-82
2023/07/20 15:00:20;;;;;;;1.60;0.98;;;46.20;17.10;;;;;;6008356;29;20038;-80
2023/07/20 15:03:33;;;;;;;1.80;1.20;;;46.20;17.00;;;;;;6014101;29;20030;-80
2023/07/20 15:06:56;;;;;;;1.42;1.10;;;46.20;17.00;;;;;;6013350;29;20060;-80
2023/07/20 15:10:01;;;;;;;1.13;1.02;;;45.80;17.10;;;;;;5999875;29;20154;-79
2023/07/20 15:13:22;;;;;;;1.40;0.93;;;44.70;17.90;;;;;;6011406;29;20132;-79
2023/07/20 15:21:20;;;;;;;1.23;1.02;;;41.50;20.00;;;;;;6032832;29;20045;-83
2023/07/20 15:24:30;;;;;;;3.75;1.63;;;39.80;21.10;;;;;;6044375;29;20158;-79
2023/07/20 15:27:37;;;;;;;3.35;1.55;;;39.30;21.70;;;;;;6047378;29;20113;-81
2023/07/20 15:31:13;;;;;;;5.82;1.75;;;39.90;21.50;;;;;;6131635;28;20043;-80
2023/07/20 15:34:19;;;;;;;4.18;1.10;;;40.80;20.80;;;;;;6128516;28;20106;-78
2023/07/20 15:37:31;;;;;;;3.00;0.90;;;41.60;20.10;;;;;;6114823;29;20046;-78
2023/07/20 15:45:37;;;;;;;2.45;1.10;;;42.30;19.20;;;;;;6154986;28;20038;-79
2023/07/20 15:52:40;;;;;;;1.70;1.23;;;43.10;18.80;;;;;;5234941;23;20050;-80
2023/07/20 16:01:23;;;;;;;3.47;0.98;;;43.50;18.60;;;;;;6171996;23;20055;-80
2023/07/20 16:10:29;;;;;;;;;;;;;;;;;;;;;
2023/07/20 16:18:40;;;;;;;3.05;1.40;;;44.10;17.90;;;;;;6021110;29;20120;-82
2023/07/20 16:22:24;;;;;;;1.30;1.10;;;44.00;18.10;;;;;;6015079;29;20045;-80
2023/07/20 16:25:40;;;;;;;2.95;1.13;;;44.10;18.00;;;;;;6007627;29;20038;-81
2023/07/20 16:32:59;;;;;;;1.15;1.05;;;43.90;17.90;;;;;;6571294;23;20440;-81
2023/07/20 16:42:07;;;;;;;2.35;1.00;;;43.10;18.40;;;;;;6079131;29;20222;-81
2023/07/20 17:02:55;;;;;;;1.50;1.00;;;40.20;20.10;;;;;;6193887;23;20058;-80
2023/07/20 17:20:13;;;;;;;6.57;1.27;;;35.50;24.00;;;;;;5958090;29;20082;-82
2023/07/20 17:23:31;;;;;;;2.15;0.85;;;35.00;24.40;;;;;;5947885;29;20142;-83
2023/07/20 17:26:44;;;;;;;1.92;0.77;;;34.60;24.60;;;;;;5935146;30;20325;-81
2023/07/20 19:52:34;;;;;;;2.65;1.30;;;30.60;31.00;;;;;;6154429;23;20047;-80
2023/07/20 19:56:07;;;;;;;4.10;1.40;;;30.60;31.40;;;;;;6077391;29;20043;-81
2023/07/20 19:59:23;;;;;;;2.85;1.35;;;30.50;31.30;;;;;;6069929;29;20520;-81
2023/07/20 20:02:52;;;;;;;16.00;1.40;;;30.60;32.00;;;;;;6036980;29;20340;-80
2023/07/20 20:06:01;;;;;;;3.80;1.13;;;30.50;32.00;;;;;;6030770;29;20041;-80
2023/07/20 20:12:55;;;;;;;2.15;1.23;;;30.40;32.10;;;;;;6026875;29;20040;-81
2023/07/20 20:21:12;;;;;;;2.08;0.95;;;30.30;32.90;;;;;;6342224;23;20047;-79
2023/07/20 20:37:03;;;;;;;2.30;1.27;;;30.00;34.10;;;;;;5985912;29;20133;-79
2023/07/20 20:40:08;;;;;;;5.78;1.00;;;29.80;34.30;;;;;;5969766;29;20161;-82
2023/07/20 20:43:12;;;;;;;1.58;1.05;;;29.70;34.70;;;;;;5982924;29;20064;-79
2023/07/20 20:46:19;;;;;;;2.88;1.08;;;29.60;35.10;;;;;;5986382;29;20111;-79
2023/07/20 20:52:52;;;;;;;1.30;1.00;;;29.50;35.30;;;;;;6113447;29;20051;-79
2023/07/20 20:56:03;;;;;;;3.67;1.40;;;29.40;35.80;;;;;;6101830;29;20082;-80
2023/07/20 21:04:06;;;;;;;10.52;1.30;;;29.20;36.00;;;;;;6089548;29;20095;-78
2023/07/20 21:07:58;;;;;;;2.80;1.20;;;29.10;36.40;;;;;;5985364;29;20034;-78
2023/07/20 21:11:02;;;;;;;1.65;1.20;;;28.80;36.30;;;;;;5981559;29;20403;-79
2023/07/20 21:14:20;;;;;;;2.42;1.20;;;29.00;36.40;;;;;;5967171;29;20034;-78
2023/07/20 21:17:23;;;;;;;1.60;1.10;;;28.90;36.50;;;;;;5982684;29;20038;-78
2023/07/20 21:20:30;;;;;;;1.88;1.20;;;28.90;36.70;;;;;;5980257;29;20455;-80
2023/07/20 21:23:33;;;;;;;3.17;1.20;;;28.80;36.70;;;;;;5981747;29;20042;-80
2023/07/20 21:26:37;;;;;;;2.45;1.30;;;28.80;36.60;;;;;;5998043;29;20602;-78
2023/07/20 21:29:38;;;;;;;2.03;1.05;;;28.80;36.30;;;;;;5982759;29;20046;-79
2023/07/20 21:32:43;;;;;;;4.22;1.25;;;28.70;36.00;;;;;;5985595;29;20442;-81
2023/07/20 21:35:51;;;;;;;2.47;1.40;;;28.80;36.00;;;;;;6001722;29;20038;-79
2023/07/20 21:38:55;;;;;;;14.45;1.30;;;28.80;36.00;;;;;;5995767;29;20737;-79
2023/07/20 21:42:08;;;;;;;3.47;1.55;;;28.80;35.90;;;;;;6009667;29;20033;-78
2023/07/20 21:45:12;;;;;;;3.08;0.95;;;28.80;35.80;;;;;;6087937;29;20099;-81
2023/07/20 21:48:52;;;;;;;3.00;1.30;;;28.70;35.50;;;;;;6076168;29;20070;-79
2023/07/20 21:52:15;;;;;;;3.30;1.70;;;28.90;35.80;;;;;;6082372;29;20133;-79